DW8840 Weather Reports


Display with metric or nautical units.
time (UTC)temp
F
wind
direction
speed
MPH
gust
MPH
rain 1hr
in
rain 24hr
in
rain mn
in
humidity
%
barometer
mb
20191018003347 70 234 2.0 12.0 0.00 0.00 0.00 36 1011.2
20191018000338 71 277 7.0 13.0 0.00 0.00 0.00 34 1011.3
20191017233330 72 252 8.0 17.0 0.00 0.00 0.00 33 1011.9
20191017230347 74 245 5.0 15.0 0.00 0.00 0.00 32 1012.3
20191017223347 73 265 8.0 26.0 0.00 0.00 0.00 32 1012.5
20191017220331 74 252 6.0 16.0 0.00 0.00 0.00 33 1012.5
20191017213326 74 239 9.0 17.0 0.00 0.00 0.00 32 1012.9
20191017210342 74 182 9.0 20.0 0.00 0.00 0.00 32 1013.2
20191017203328 74 201 10.0 22.0 0.00 0.00 0.00 32 1013.5
20191017200336 74 225 6.0 19.0 0.00 0.00 0.00 30 1014.1
20191017193330 75 215 8.0 16.0 0.00 0.00 0.00 28 1014.5
20191017190339 74 258 10.0 17.0 0.00 0.00 0.00 28 1015.1
20191017183334 74 202 8.0 14.0 0.00 0.00 0.00 28 1015.9
20191017180343 73 213 10.0 16.0 0.00 0.00 0.00 29 1016.1
20191017173327 71 114 3.0 14.0 0.00 0.00 0.00 34 1016.3
20191017170330 69 162 5.0 9.0 0.00 0.00 0.00 33 1016.5
20191017163329 67 144 1.0 9.0 0.00 0.00 0.00 34 1016.8
20191017160337 64 111 3.0 8.0 0.00 0.00 0.00 35 1017.0
20191017153337 62 91 3.0 8.0 0.00 0.00 0.00 37 1017.1
20191017150348 59 154 0.0 3.0 0.00 0.00 0.00 42 1017.4
20191017143345 54 184 0.0 1.0 0.00 0.00 0.00 46 1017.3
20191017140339 53 184 0.0 3.0 0.00 0.00 0.00 48 1017.1
20191017133330 52 184 1.0 3.0 0.00 0.00 0.00 47 1017.2
20191017130330 53 184 1.0 4.0 0.00 0.00 0.00 46 1017.2
20191017123344 53 185 0.0 3.0 0.00 0.00 0.00 46 1017.3
20191017120327 52 186 1.0 3.0 0.00 0.00 0.00 48 1017.2
20191017113344 50 186 0.0 1.0 0.00 0.00 0.00 50 1017.4
20191017110348 49 186 0.0 0.0 0.00 0.00 0.00 52 1017.3
20191017103348 49 186 0.0 1.0 0.00 0.00 0.00 52 1017.3
20191017100329 50 186 0.0 0.0 0.00 0.00 0.00 50 1017.5
20191017093338 50 186 0.0 1.0 0.00 0.00 0.00 50 1017.8
20191017090344 52 186 0.0 2.0 0.00 0.00 0.00 48 1018.1
20191017083340 50 186 1.0 2.0 0.00 0.00 0.00 50 1018.3
20191017080339 51 186 0.0 2.0 0.00 0.00 0.00 49 1018.6
20191017073341 50 186 0.0 0.0 0.00 0.00 0.00 51 1018.8
20191017070326 49 186 0.0 0.0 0.00 0.00 0.00 50 1019.0
20191017063329 50 186 0.0 0.0 0.00 0.00 0.00 50 1019.0
20191017060331 50 186 0.0 0.0 0.00 0.00 0.00 49 1019.4
20191017053340 52 186 0.0 0.0 0.00 0.00 0.00 47 1019.6
20191017050335 55 186 0.0 0.0 0.00 0.00 0.00 42 1019.8
20191017043339 56 186 0.0 0.0 0.00 0.00 0.00 40 1019.7
20191017040333 57 186 0.0 0.0 0.00 0.00 0.00 38 1019.4
20191017033331 59 186 0.0 0.0 0.00 0.00 0.00 36 1019.2
20191017030341 63 185 0.0 0.0 0.00 0.00 0.00 31 1019.2
20191017023346 62 186 1.0 5.0 0.00 0.00 0.00 32 1018.8
20191017020329 64 186 0.0 1.0 0.00 0.00 0.00 28 1018.7
20191017013333 67 186 0.0 2.0 0.00 0.00 0.00 25 1018.5
20191017010345 69 190 2.0 7.0 0.00 0.00 0.00 23 1018.2